Hampton Head 4's and 8's - 2017

by MyRaceTime.co.uk


Results by Division

Published on: 04 February 2017
Race Pos. > Category Pos. Comp. No. Comp. Name Category > Club Name > Time (hh:mm:ss:t) Prize
Division: 1
25 1 159 Stark J18A.4+ Eton Coll 00:07:45:0
28 1 153 HAM- SENIOR 4- JSchA.4- Hampton Sch BC 00:07:47:3
30 2 154 LTU-Traeger JSchA.4- Latymer Upper Sch 00:07:48:8
39 1 25 WBS-Smith J18A.2x Windsor Boys Sch 00:07:54:1
46 3 155 GMS-Peace JSchA.4- Gt Marlow Sch 00:07:57:7
55 4 157 MBC A JSchA.4- Molesey BC 00:08:02:1
58 2 170 Targaryen J18A.4+ Eton Coll 00:08:02:2
59 3 164 BDS-Eggeling J18A.4+ Bedford Sch 00:08:02:3
62 2 10 TSS-Kelly J18A.2x Tideway Scullers Sch 00:08:04:3
64 3 3 MHD-Kleshnev J18A.2x Maidenhead RC 00:08:04:7
65 5 158 HAM-Cockett JSchA.4- Hampton Sch BC 00:08:04:9
71 1 228 HEN-Swinburn J15A.4x+ Henley RC 00:08:07:3
72 4 162 Lannister J18A.4+ Eton Coll 00:08:09:1
77 5 160 BMS-Colliver J18A.4+ Bedford Modern Sch 00:08:10:2
78 4 6 WBS-Shewell J18A.2x Windsor Boys Sch 00:08:10:8
87 1 186 KRC-Cramp J16A.4+ Kingston RC 00:08:12:8
91 5 12 WBS-Bodkin J18A.2x Windsor Boys Sch 00:08:14:6
92 1 249 LTU-J15A J15A.4+ Latymer Upper Sch 00:08:14:8
97 6 163 LOS Joseph J18A.4+ Lon Oratory Sch 00:08:16:8
99 2 198 NSC-Hook J16A.4+ Norwich Sch 00:08:17:9
100 6 16 GLB-Sullivan-2 J18A.2x Globe 00:08:18:2
101 7 5 GLB-Sullivan J18A.2x Globe 00:08:18:3
103 8 15 MHD-O Mahony J18A.2x Maidenhead RC 00:08:18:7
105 7 168 WIN-Davidson J18A.4+ Winchester Coll 00:08:18:8
108 9 24 NOW-Coffey J18A.2x Northwich RC 00:08:19:2
114 1 50 LEA-den Dulk J16A.2x Lea RC 00:08:20:5
116 1 29 MBC-A J18A.2- Molesey BC 00:08:20:8
119 2 30 HAM-Worthington J18A.2- Hampton Sch BC 00:08:21:1
122 3 41 MBC-B J18A.2- Molesey BC 00:08:21:7
124 10 17 NSC-Tremelling J18A.2x Norwich Sch 00:08:22:5
125 11 8 NOW-Dudley J18A.2x Northwich RC 00:08:23:3
129 3 190 LOS Davies J16A.4+ Lon Oratory Sch 00:08:24:1
130 8 156 LOS Jones JSchA.4- Lon Oratory Sch 00:08:24:1
133 8 165 LTU-Ward J18A.4+ Latymer Upper Sch 00:08:25:2
134 2 48 HEN-Issa J16A.2x Henley RC 00:08:25:3
140 7 231 HEN-Beattie J15A.4x+ Henley RC 00:08:28:2
142 4 42 HAM - MT J18A.2- Hampton Sch BC 00:08:28:4
145 5 36 LLA-Davies J18A.2- Llandaff RC 00:08:28:8
146 2 259 WLT-O Neill J15A.4+ Walton RC 00:08:28:9
150 3 254 HAM-A J15A.4+ Hampton Sch BC 00:08:29:5
153 9 166 HAM-Wright J18A.4+ Hampton Sch BC 00:08:30:1
154 4 185 SPS-2 J16A.4+ St Pauls Sch BC 00:08:30:2
157 1 178 SPG-Valt W.JSchA.4- St Pauls Girls Sch BC 00:08:31:9
159 5 194 BMS-Herbert J16A.4+ Bedford Modern Sch 00:08:31:9
162 2 174 LEH-Taylor W.JSchA.4- Lady E Holles 00:08:32:4
163 4 250 SPS 1 J15A.4+ St Pauls Sch BC 00:08:32:5
164 6 38 NSC-Bacic J18A.2- Norwich Sch 00:08:32:5
165 1 147 WLT-Heywood J16A.2- Walton RC 00:08:32:9
166 5 251 LOS Kaleta J15A.4+ Lon Oratory Sch 00:08:33:0
167 1 246 GLB-Watson-Gandy J15A.2x Globe 00:08:33:2
172 6 255 LTU-B J15A.4+ Latymer Upper Sch 00:08:34:5
173 12 19 NOW-Burke J18A.2x Northwich RC 00:08:34:9
174 3 46 WLT-Suphi J16A.2x Walton RC 00:08:35:6
179 1 265 LTU-A W.J15A.4x+ Latymer Upper Sch 00:08:36:6
180 6 187 HAM-Georghiades J16A.4+ Hampton Sch BC 00:08:36:8
183 4 175 HEN-Lock W.JSchA.4- Henley RC 00:08:38:5
184 2 277 HEN-Hills W.J15A.4x+ Henley RC 00:08:38:7
185 4 57 NOW-Miles J16A.2x Northwich RC 00:08:38:7
186 7 191 SPS-3 J16A.4+ St Pauls Sch BC 00:08:38:8
189 7 40 MHD-Somerville J18A.2- Maidenhead RC 00:08:39:1
193 2 239 TSS-de St Croix J15A.2x Tideway Scullers Sch 00:08:40:2
194 3 237 MHD-Overturf J15A.2x Maidenhead RC 00:08:40:3
196 4 278 LTU-B W.J15A.4x+ Latymer Upper Sch 00:08:40:6
197 13 28 MBC-Lucas J18A.2x Molesey BC 00:08:40:7
201 8 179 ETN-Bewicke-Copley J16A.4+ Eton Coll 00:08:41:5
202 14 9 ABV-Young J18A.2x A B Severn 00:08:41:5
204 10 167 GMS-Westfold J18A.4+ Gt Marlow Sch 00:08:42:1
206 7 262 HAM-B J15A.4+ Hampton Sch BC 00:08:42:3
207 15 21 KCA-Kahol de jong J18A.2x Kings Sch Canterbury 00:08:42:6
208 9 188 ETN- Jain J16A.4+ Eton Coll 00:08:42:6
209 4 236 MBC-Boret J15A.2x Molesey BC 00:08:42:6
211 5 56 LTU-Ferm J16A.2x Latymer Upper Sch 00:08:42:9
212 8 263 LTU-J15C J15A.4+ Latymer Upper Sch 00:08:42:9
213 6 52 WBS-Tebbit J16A.2x Windsor Boys Sch 00:08:42:9
214 5 177 GMS-Armes W.JSchA.4- Gt Marlow Sch 00:08:43:2
215 1 317 KRC-A W.J15A.4+ Kingston RC 00:08:43:5
217 9 253 NSC-J15 III J15A.4+ Norwich Sch 00:08:43:8
219 6 176 BMS-Graham W.JSchA.4- Bedford Modern Sch 00:08:44:6
220 8 43 MBC-C J18A.2- Molesey BC 00:08:45:0
225 7 63 GLB-Kirk J16A.2x Globe 00:08:45:8
229 1 71 MBC-Dunford W.J18A.2x Molesey BC 00:08:46:4
230 3 172 GMS-Honey J16A.4- Gt Marlow Sch 00:08:46:4
231 9 35 BDS-Mitchell J18A.2- Bedford Sch 00:08:46:4
232 5 275 LEH-Cross W.J15A.4x+ Lady E Holles 00:08:46:4
233 2 88 HED-Little W.J18A.2x Headington Sch 00:08:46:7
234 16 14 ASL-Mannhardt J18A.2x American Sch 00:08:46:7
236 5 238 WBS-van Gelderen J15A.2x Windsor Boys Sch 00:08:47:2
237 11 169 CAN-Jack J18A.4+ Canford Sch 00:08:47:7
238 2 149 HAM-Andrews J16A.2- Hampton Sch BC 00:08:47:9
239 10 31 NSC-Cann J18A.2- Norwich Sch 00:08:48:4
240 3 142 HAM-Woodall J16A.2- Hampton Sch BC 00:08:48:9
243 3 81 ASL-Brunsberg W.J18A.2x American Sch 00:08:49:7
244 11 44 NSC-Burrell J18A.2- Norwich Sch 00:08:49:8
246 7 270 SBT-Sutton W.J15A.4x+ Surbiton H Sch 00:08:50:0
248 17 18 BAE-Watkins J18A.2x Barn Elms 00:08:50:7
249 1 215 LEA-Froggatt-Brown W.J16A.4+ Lea RC 00:08:51:4
250 4 146 HAM-Bridge J16A.2- Hampton Sch BC 00:08:51:6
251 8 273 COX-Stringer W.J15A.4x+ City of Oxford 00:08:52:4
252 4 73 HED-Pullinger W.J18A.2x Headington Sch 00:08:52:4
253 5 109 HEN-Kay W.J18A.2x Henley RC 00:08:52:5
254 9 280 LEH-Deol W.J15A.4x+ Lady E Holles 00:08:52:7
255 8 58 TSS-Jonas J16A.2x Tideway Scullers Sch 00:08:53:0
257 7 173 SBT-Brister-Runnacles W.JSchA.4- Surbiton H Sch 00:08:53:3
259 1 207 PHS-J18 W.J18A.4+ Putney High Sch 00:08:53:6
261 12 32 WLT-Jenkinson J18A.2- Walton RC 00:08:54:8
262 13 45 LVA-Oliver J18A.2- LVS Ascot BC 00:08:55:1
263 6 240 NSC-J15 V J15A.2x Norwich Sch 00:08:55:5
266 10 281 BKS-Mckean W.J15A.4x+ Becket RC 00:08:56:3
269 9 62 HEN-Sidgwick J16A.2x Henley RC 00:08:56:6
270 10 189 KGS J16 J16A.4+ Kingston G Sch 00:08:56:7
271 2 312 HEN-Drury W.J15A.4+ Henley RC 00:08:56:9
274 2 206 HEN-Sotnick W.J18A.4+ Henley RC 00:08:57:2
276 3 199 LEH-bowyer W.J18A.4+ Lady E Holles 00:08:57:4
277 6 86 LTU-Thomas W.J18A.2x Latymer Upper Sch 00:08:57:5
279 10 67 TRC-Murray J16A.2x Thames RC 00:08:57:7
280 10 264 HAM-C J15A.4+ Hampton Sch BC 00:08:57:7
281 14 37 WLT-Cleary J18A.2- Walton RC 00:08:57:8
283 11 193 HAM-Chan J16A.4+ Hampton Sch BC 00:08:58:6
284 4 209 LEH-Mason W.J18A.4+ Lady E Holles 00:08:58:7
285 12 195 ETN-Howard J16A.4+ Eton Coll 00:08:58:8
286 7 245 MHD-Hughes J15A.2x Maidenhead RC 00:08:59:0
287 8 242 WBS-Frobisher J15A.2x Windsor Boys Sch 00:08:59:2
288 1 114 LEH W.J18A.2- Lady E Holles 00:08:59:4
289 5 200 HED-Smith W.J18A.4+ Headington Sch 00:08:59:5
291 13 181 CAN-Bartlett J16A.4+ Canford Sch 00:09:00:3
292 7 87 LLA-Jenkins W.J18A.2x Llandaff RC 00:09:00:5
293 2 214 LTU-Jones W.J16A.4+ Latymer Upper Sch 00:09:00:9
295 3 213 TSS-Joss W.J16A.4+ Tideway Scullers Sch 00:09:01:1
296 8 108 HED-Hornby W.J18A.2x Headington Sch 00:09:01:2
297 12 171 HAM - Linqvist J18A.4+ Hampton Sch BC 00:09:01:3
298 2 116 HEN-Jonsson W.J18A.2- Henley RC 00:09:01:5
300 1 211 LEH-Noursadeghi W.J16A.4- Lady E Holles 00:09:01:7
302 3 314 PHS-Bridges W.J15A.4+ Putney High Sch 00:09:02:7
303 9 100 TRC-Munyard W.J18A.2x Thames RC 00:09:03:5
306 10 111 TSS-Wedderburn W.J18A.2x Tideway Scullers Sch 00:09:04:3
307 6 208 MBC-Parker W.J18A.4+ Molesey BC 00:09:04:6
309 11 66 WBS-Cleare J16A.2x Windsor Boys Sch 00:09:05:0
310 1 132 BKS-Bates W.J16A.2x Becket RC 00:09:05:2
314 18 26 WIN-St John Butler J18A.2x Winchester Coll 00:09:06:6
316 12 61 KSE-SCHOOL J16A.2x Kings Sch Ely 00:09:06:9
317 9 248 TSS-Thompson J15A.2x Tideway Scullers Sch 00:09:07:3
318 10 235 WLT-Kiss J15A.2x Walton RC 00:09:07:3
319 14 192 LVA-Tuohy J16A.4+ LVS Ascot BC 00:09:07:6
320 5 151 LTU-Harrison J16A.2- Latymer Upper Sch 00:09:08:0
321 11 96 LTU-Lloyd W.J18A.2x Latymer Upper Sch 00:09:08:1
322 12 94 LTU-Fabrizio W.J18A.2x Latymer Upper Sch 00:09:08:4
323 4 212 PHS-Zedda James W.J16A.4+ Putney High Sch 00:09:08:4
324 4 320 KRC-B W.J15A.4+ Kingston RC 00:09:08:4
325 6 150 KGS-J16 J16A.2- Kingston G Sch 00:09:08:9
326 7 141 ETN-Vignial J16A.2- Eton Coll 00:09:09:0
327 19 22 WGT-Mahmood J18A.2x Whitgift Sch BC 00:09:09:2
329 11 252 BDS-Lorna J15A.4+ Bedford Sch 00:09:10:0
333 13 274 SBT-Sanders W.J15A.4x+ Surbiton H Sch 00:09:10:5
336 5 217 LEH W.J16A.4+ Lady E Holles 00:09:11:8
337 13 110 SBT-Croft W.J18A.2x Surbiton H Sch 00:09:12:3
338 3 112 HEN-Edwards W.J18A.2- Henley RC 00:09:12:5
342 11 243 MBC-Williams J15A.2x Molesey BC 00:09:13:6
343 7 205 BMS-Ball W.J18A.4+ Bedford Modern Sch 00:09:13:6
346 14 106 LTU-Hdjw W.J18A.2x Latymer Upper Sch 00:09:14:9
349 15 76 GLB-Samuel W.J18A.2x Globe 00:09:15:5
350 16 74 KCA-Hofmann W.J18A.2x Kings Sch Canterbury 00:09:16:1
351 6 220 EMA-Beams W.J16A.4+ Emanuel Sch 00:09:16:2
352 17 93 SWP-Garnham W.J18A.2x Sir William Perkins s Sch 00:09:16:5
353 1 299 ROS-Phillips W.J15A.2x Ross RC 00:09:16:6
354 18 105 STN-Hannam W.J18A.2x Staines 00:09:16:7
355 5 310 LEH-Guest W.J15A.4+ Lady E Holles 00:09:17:0
356 8 143 LTU-Rowland J16A.2- Latymer Upper Sch 00:09:17:4
357 19 78 ABV-Skinner W.J18A.2x A B Severn 00:09:17:5
361 2 138 TSS-Supple W.J16A.2x Tideway Scullers Sch 00:09:18:6
363 9 152 ETN-Hodson J16A.2- Eton Coll 00:09:19:0
364 20 75 COX-Millard W.J18A.2x City of Oxford 00:09:19:0
365 6 313 KGS-1 W.J15A.4+ Kingston G Sch 00:09:19:1
367 7 216 GMS-Peace W.J16A.4+ Gt Marlow Sch 00:09:19:2
369 3 131 KSE - HILL W.J16A.2x Kings Sch Ely 00:09:19:5
372 4 128 WLT-Stenning W.J16A.2x Walton RC 00:09:20:7
373 10 144 ETN-Pooley J16A.2- Eton Coll 00:09:20:9
374 13 64 WGT-Martin J16A.2x Whitgift Sch BC 00:09:21:1
375 5 126 SBT-Slater W.J16A.2x Surbiton H Sch 00:09:21:4
376 7 315 SES-Thomas W.J15A.4+ St Edwards Sch 00:09:21:8
377 8 204 HAB-Hunter W.J18A.4+ HMSG RC 00:09:21:9
378 2 297 TSS-Mavra W.J15A.2x Tideway Scullers Sch 00:09:22:2
379 21 83 SWP-Fountain W.J18A.2x Sir William Perkins s Sch 00:09:22:8
380 22 98 MHD-Ross-Masson W.J18A.2x Maidenhead RC 00:09:23:3
381 23 84 COX-Beaver W.J18A.2x City of Oxford 00:09:23:6
383 4 120 HED-Butler W.J18A.2- Headington Sch 00:09:24:5
384 12 258 NSC-J15 IV J15A.4+ Norwich Sch 00:09:24:6
385 24 77 SWP-Taylor W.J18A.2x Sir William Perkins s Sch 00:09:24:7
386 14 47 ABV-Mitchell J16A.2x A B Severn 00:09:24:7
388 25 99 KSE-HILL HOUSE W.J18A.2x Kings Sch Ely 00:09:25:5
390 5 113 HED-Haskins W.J18A.2- Headington Sch 00:09:26:4
392 8 226 GLT-Lane W.J16A.4+ Godolphin Sch 00:09:26:9
393 12 247 BAE-Woods J15A.2x Barn Elms 00:09:27:4
394 26 89 LYT-Winyard W.J18A.2x LYR Tradesmen 00:09:27:4
396 3 302 STN-Burton W.J15A.2x Staines 00:09:27:6
397 6 123 MBC-Dunford W.J16A.2x Molesey BC 00:09:28:0
399 13 241 HWG-A 2x 15 J15A.2x RGS High Wycombe 00:09:28:2
401 13 161 CAN-Hosking J18A.4+ Canford Sch 00:09:29:0
403 9 221 KGS-GJ16 4+ W.J16A.4+ Kingston G Sch 00:09:29:4
404 27 229 KSE-SCHOOL B J15A.4x+ Kings Sch Ely 00:09:29:6
405 27 72 LTU-Marshall W.J18A.2x Latymer Upper Sch 00:09:30:0
406 11 148 ETN-Whiteley J16A.2- Eton Coll 00:09:30:3
407 10 225 HAB-Blagbrough W.J16A.4+ HMSG RC 00:09:30:4
408 28 85 KGS-Gibson W.J18A.2x Kingston G Sch 00:09:31:2
409 15 65 WLT-Armella J16A.2x Walton RC 00:09:32:0
410 4 305 BMS-Eales W.J15A.2x Bedford Modern Sch 00:09:32:1
412 8 318 HAB-Frankel W.J15A.4+ HMSG RC 00:09:32:5
415 5 306 WLT-Catlin W.J15A.2x Walton RC 00:09:34:0
416 11 219 GLT-Bryant W.J16A.4+ Godolphin Sch 00:09:34:6
417 16 68 LYT-Delfs J16A.2x LYR Tradesmen 00:09:34:6
418 7 122 ABV-Surman W.J16A.2x A B Severn 00:09:34:9
419 6 283 STN-Knight W.J15A.2x Staines 00:09:37:0
420 6 119 WLT-Alexopoulos W.J18A.2- Walton RC 00:09:37:6
421 7 287 SWP-Martin W.J15A.2x Sir William Perkins s Sch 00:09:38:6
422 8 289 SWP-Faukentoft-Hansen W.J15A.2x Sir William Perkins s Sch 00:09:38:9
423 8 121 SPG-Strong W.J16A.2x St Pauls Girls Sch BC 00:09:39:1
424 9 137 SBT-McCarthy W.J16A.2x Surbiton H Sch 00:09:39:2
426 29 79 MHD-Tomasik W.J18A.2x Maidenhead RC 00:09:39:9
427 9 293 SWP-Hawkes W.J15A.2x Sir William Perkins s Sch 00:09:40:3
430 25 268 LYT-Newhouse W.J15A.4x+ LYR Tradesmen 00:09:41:2
431 12 222 CAN-Hewett W.J16A.4+ Canford Sch 00:09:41:4
432 10 304 ROS-Ryan W.J15A.2x Ross RC 00:09:41:4
434 13 260 KGS-Thom J15A.4+ Kingston G Sch 00:09:42:1
435 11 307 ABV-McDermott W.J15A.2x A B Severn 00:09:42:3
437 30 102 BAE-Griffin W.J18A.2x Barn Elms 00:09:44:0
439 31 80 WLT-Furber W.J18A.2x Walton RC 00:09:44:2
440 15 183 WGT-Pringle J16A.4+ Whitgift Sch BC 00:09:45:3
441 10 129 SPG-Spielman W.J16A.2x St Pauls Girls Sch BC 00:09:47:1
442 32 92 LEH-Rhodes W.J18A.2x Lady E Holles 00:09:48:7
443 12 284 TSS-Campbell W.J15A.2x Tideway Scullers Sch 00:09:49:0
445 9 316 KGS-2 W.J15A.4+ Kingston G Sch 00:09:51:0
446 28 276 SPG-Stuart-Smith W.J15A.4x+ St Pauls Girls Sch BC 00:09:51:2
447 13 292 WHS A Bassadone W.J15A.2x Wimbledon High Sch 00:09:52:4
450 29 234 Hampton J15A.4x+ Hampton Sch BC 00:09:53:8
451 9 210 CAN-Doyle W.J18A.4+ Canford Sch 00:09:54:2
452 14 285 BMS-Burchell W.J15A.2x Bedford Modern Sch 00:09:54:6
455 11 127 SHV-Gordon W.J16A.2x Shiplake Vikings 00:09:59:8
457 15 309 LYT-Golub W.J15A.2x LYR Tradesmen 00:10:03:5
458 16 295 STN-Mason W.J15A.2x Staines 00:10:04:4
459 12 125 PHS-Head W.J16A.2x Putney High Sch 00:10:04:4
460 13 223 WHS-Wong W.J16A.4+ Wimbledon High Sch 00:10:06:1
461 7 115 BAE-Gracey W.J18A.2- Barn Elms 00:10:07:2
462 33 107 TFN-Tribe W.J18A.2x Tiffin Sch 00:10:09:3
463 17 298 WHS-Wallace W.J15A.2x Wimbledon High Sch 00:10:12:8
465 18 301 KSE-Kirkpatrick W.J15A.2x Kings Sch Ely 00:10:18:6
466 13 130 PHS-Saunders W.J16A.2x Putney High Sch 00:10:19:1
467 19 291 NSC-Shaw W.J15A.2x Norwich Sch 00:10:25:6
469 20 294 WHS-Hill W.J15A.2x Wimbledon High Sch 00:10:31:0
473 37 271 ASL-Benami Narasimhan W.J15A.4x+ American Sch 00:10:54:0
Time Only 1 ASL/TSS-Joss/Skow J18A.2x American Sch Lon/Tideway Scullers 00:08:02:3
Time Only 34 KGS/KCA -Spurling/Allinson J18A.2- Kingston GS/Kings Canterbury 00:08:24:0
Time Only 227 SWP - Z W.J16A.4+ Sir William Perkins s Sch 00:09:15:1
Scratched 135 ASL-Lambden W.J16A.2x American Sch 00:00:00:0
Scratched 7 BAE-Holt J18A.2x Barn Elms 00:00:00:0
Scratched 272 BAE-Oliver W.J15A.4x+ Barn Elms 00:00:00:0
Scratched 197 BRY-Wilson J16A.4+ Bryanston Sch 00:00:00:0
Scratched 230 BRY-Pollock J15A.4x+ Bryanston Sch 00:00:00:0
Scratched 232 BRY-Chadwick J15A.4x+ Bryanston Sch 00:00:00:0
Scratched 286 BRY-Cuninghame W.J15A.2x Bryanston Sch 00:00:00:0
Scratched 69 BUR-Barrett J16A.2x Burway RC 00:00:00:0
Scratched 4 CCS-Yate J18A.2x Claires Court Sch 00:00:00:0
Scratched 11 CCS-Costley J18A.2x Claires Court Sch 00:00:00:0
Scratched 55 CCS-Fairley J16A.2x Claires Court Sch 00:00:00:0
Scratched 184 DUL-Polaris J16A.4+ Dulwich Coll 00:00:00:0
Scratched 296 GLB-Richards W.J15A.2x Globe 00:00:00:0
Scratched 233 GMS-Rhodes J15A.4x+ Gt Marlow Sch 00:00:00:0
Scratched 319 GMS-Fisher W.J15A.4+ Gt Marlow Sch 00:00:00:0
Scratched 117 HED-Stephens W.J18A.2- Headington Sch 00:00:00:0
Scratched 201 HAB-Du Toit W.J18A.4+ HMSG RC 00:00:00:0
Scratched 53 KSE - HEREWARD J16A.2x Kings Sch Ely 00:00:00:0
Scratched 124 KSE-Withburger W.J16A.2x Kings Sch Ely 00:00:00:0
Scratched 20 KGS-J18 J18A.2x Kingston G Sch 00:00:00:0
Scratched 49 KGS-J16 J16A.2x Kingston G Sch 00:00:00:0
Scratched 134 KGS-Betts W.J16A.2x Kingston G Sch 00:00:00:0
Scratched 321 KGS-3 W.J15A.4+ Kingston G Sch 00:00:00:0
Scratched 104 KRC-Thompson W.J18A.2x Kingston RC 00:00:00:0
Scratched 82 LEH-Witt W.J18A.2x Lady E Holles 00:00:00:0
Scratched 282 LTU-C W.J15A.4x+ Latymer Upper Sch 00:00:00:0
Scratched 196 LVA-Crisp J16A.4+ LVS Ascot BC 00:00:00:0
Scratched 290 LVA-Binmore W.J15A.2x LVS Ascot BC 00:00:00:0
Scratched 23 MHD-Rowe J18A.2x Maidenhead RC 00:00:00:0
Scratched 13 MAR-Fairman J18A.2x Marlow RC 00:00:00:0
Scratched 27 MAR-Simon J18A.2x Marlow RC 00:00:00:0
Scratched 33 MAR-Smith J18A.2- Marlow RC 00:00:00:0
Scratched 51 MAR-Crossley J16A.2x Marlow RC 00:00:00:0
Scratched 101 MAR-Bird W.J18A.2x Marlow RC 00:00:00:0
Scratched 118 MAR-Fennell W.J18A.2- Marlow RC 00:00:00:0
Scratched 140 MAR-Eveleigh W.J16A.2x Marlow RC 00:00:00:0
Scratched 182 MAR-Denson J16A.4+ Marlow RC 00:00:00:0
Scratched 203 MAR-Strudwick W.J18A.4+ Marlow RC 00:00:00:0
Scratched 218 MAR-Berry W.J16A.4+ Marlow RC 00:00:00:0
Scratched 279 MAR-Clark-Pratt W.J15A.4x+ Marlow RC 00:00:00:0
Scratched 288 MAR-Huggett W.J15A.2x Marlow RC 00:00:00:0
Scratched 95 MBC-Truett W.J18A.2x Molesey BC 00:00:00:0
Scratched 97 NOW-George W.J18A.2x Northwich RC 00:00:00:0
Scratched 139 NOW-Shirley W.J16A.2x Northwich RC 00:00:00:0
Scratched 54 NSC-Walton J16A.2x Norwich Sch 00:00:00:0
Scratched 59 NSC-Dixon J16A.2x Norwich Sch 00:00:00:0
Scratched 136 PHS-Awe W.J16A.2x Putney High Sch 00:00:00:0
Scratched 300 PHS-Hendry W.J15A.2x Putney High Sch 00:00:00:0
Scratched 70 RDH-Sharp J16A.2x Radnor House Sch 00:00:00:0
Scratched 103 SWP-Dalton W.J18A.2x Sir William Perkins s Sch 00:00:00:0
Scratched 267 SWP-Phelps W.J15A.4x+ Sir William Perkins s Sch 00:00:00:0
Scratched 303 SWP-Moss W.J15A.2x Sir William Perkins s Sch 00:00:00:0
Scratched 180 SES-Moore J16A.4+ St Edwards Sch 00:00:00:0
Scratched 224 SES-Cope W.J16A.4+ St Edwards Sch 00:00:00:0
Scratched 202 SPG-Lewis W.J18A.4+ St Pauls Girls Sch BC 00:00:00:0
Scratched 256 SPS 2 J15A.4+ St Pauls Sch BC 00:00:00:0
Scratched 261 SPS-Daniel J15A.4+ St Pauls Sch BC 00:00:00:0
Scratched 311 SBT-Mustafa W.J15A.4+ Surbiton H Sch 00:00:00:0
Scratched 90 TRC-Knight W.J18A.2x Thames RC 00:00:00:0
Scratched 39 TSS-Hatteland-Dunn J18A.2- Tideway Scullers Sch 00:00:00:0
Scratched 145 TSS-Pilkington Massey J16A.2- Tideway Scullers Sch 00:00:00:0
Scratched 2 WRC-Hearnden J18A.2x Wallingford RC 00:00:00:0
Scratched 60 WRC-Robson J16A.2x Wallingford RC 00:00:00:0
Scratched 244 WRC-Mangion J15A.2x Wallingford RC 00:00:00:0
Scratched 266 WRC-Campbell W.J15A.4x+ Wallingford RC 00:00:00:0
Scratched 308 WRC-Barton W.J15A.2x Wallingford RC 00:00:00:0
Scratched 91 WEY-Goochild W.J18A.2x Weybridge RC 00:00:00:0
Scratched 257 WEY-Shore J15A.4+ Weybridge RC 00:00:00:0
Scratched 133 WHS-Mercer W.J16A.2x Wimbledon High Sch 00:00:00:0
Division: 2
1 1 452 WinColl8+ J18A.8+ Winchester Coll 00:07:04:9
2 2 451 RAD-Corner J18A.8+ Radley College 00:07:13:4
3 3 453 HAMPTON J18A.8+ Hampton Sch BC 00:07:13:4
4 4 462 Mr Fantastic J18A.8+ Eton Coll 00:07:14:5
5 5 456 Invisible Woman J18A.8+ Eton Coll 00:07:20:4
6 6 457 MBC-Hardy J18A.8+ Molesey BC 00:07:21:5
7 7 459 BDS-Lamb J18A.8+ Bedford Sch 00:07:23:5
8 8 458 DUL-Turnbull J18A.8+ Dulwich Coll 00:07:28:3
9 1 469 LEA-Badcott J18A.4x- Lea RC 00:07:31:5
10 2 472 TSS-Aladay J18A.4x- Tideway Scullers Sch 00:07:31:5
11 3 470 WBS-Smith J18A.4x- Windsor Boys Sch 00:07:33:6
12 4 468 SAA-1 J18A.4x- Star & Arrow 00:07:34:0
13 5 467 MHD-Kleshnev J18A.4x- Maidenhead RC 00:07:36:7
14 9 455 LOS Dickens J18A.8+ Lon Oratory Sch 00:07:38:1
15 1 497 HAM - Trevor J18A.8+ 2nd VIII Hampton Sch BC 00:07:41:5
16 6 473 NOW-Dudley J18A.4x- Northwich RC 00:07:42:2
17 7 490 MHD-O Mahony J18A.4x- Maidenhead RC 00:07:42:3
18 10 461 GMS-Cunningham J18A.8+ Gt Marlow Sch 00:07:43:7
19 8 477 w17wsQ J18A.4x- Westminster Sch 00:07:44:1
20 1 514 WLT-Suphi J16A.4x- Walton RC 00:07:44:2
21 11 464 BMS-Colliver J18A.8+ Bedford Modern Sch 00:07:44:3
22 12 466 LLA-Wing J18A.8+ Llandaff RC 00:07:44:4
23 9 484 SAA-2 J18A.4x- Star & Arrow 00:07:44:5
24 10 492 CCS-Yate J18A.4x- Claires Court Sch 00:07:44:9
26 11 482 GLB-Sullivan J18A.4x- Globe 00:07:45:9
27 2 499 DUL-Alleyn J18A.8+ 2nd VIII Dulwich Coll 00:07:46:1
29 12 476 LTU-Mayhew J18A.4x- Latymer Upper Sch 00:07:48:2
31 2 512 TSS-Hill J16A.4x- Tideway Scullers Sch 00:07:49:3
32 3 500 BDS -2 J18A.8+ 2nd VIII Bedford Sch 00:07:49:3
33 4 501 Human Torch J18A.8+ 2nd VIII Eton Coll 00:07:49:5
34 1 506 LTU-Harrison J16A.8+ Latymer Upper Sch 00:07:50:2
35 2 502 Black J16A.8+ St Pauls Sch BC 00:07:50:4
36 13 479 NSC-Burrell J18A.4x- Norwich Sch 00:07:51:9
37 13 463 EMA-St Aubyn J18A.8+ Emanuel Sch 00:07:52:4
38 1 552 Thompson J15A.8+ Kings College Sch 00:07:53:2
40 14 488 OUN-Davis Gimeno J18A.4x- Oundle Sch 00:07:54:4
41 14 465 ORA-Kibble J18A.8+ Oratory Sch 00:07:55:1
42 15 475 KCA-Edgar, J18A.4x- Kings Sch Canterbury 00:07:55:9
43 2 545 LTU-J15A J15A.8+ Latymer Upper Sch 00:07:56:2
44 3 544 SPS A J15A.8+ St Pauls Sch BC 00:07:56:5
45 5 496 The Thing J18A.8+ 2nd VIII Eton Coll 00:07:56:9
47 3 525 GLB-Bees J16A.4x- Globe 00:07:59:4
48 1 541 RAD-Redley J16A.8+ 2nd VIII Radley College 00:07:59:8
49 16 480 ASL-Troyer J18A.4x- American Sch 00:08:00:2
50 4 556 LOS Yanez-Cunningham J15A.8+ Lon Oratory Sch 00:08:00:4
51 5 548 HEN-Swinburn J15A.8+ Henley RC 00:08:00:5
52 4 515 HEN-Issa J16A.4x- Henley RC 00:08:00:9
53 17 489 NOW-Swithenbank J18A.4x- Northwich RC 00:08:01:1
54 3 504 RAD-Taylor J16A.8+ Radley College 00:08:02:1
56 4 510 LOS Jinks J16A.8+ Lon Oratory Sch 00:08:02:1
57 6 542 17ws15 8x J15A.8+ Westminster Sch 00:08:02:1
60 7 553 HAM-O Sullivan J15A.8+ Hampton Sch BC 00:08:03:8
61 5 524 MOC-Williams J16A.4x- Monmouth Comprehensive Sch 00:08:04:0
63 8 560 J15A.8+ J15A.8+ Winchester Coll 00:08:04:4
66 18 474 ABV-Andre J18A.4x- A B Severn 00:08:05:1
67 1 570 BKS-Richards W.J18A.8+ Becket RC 00:08:05:3
68 6 522 HWG - 16A J16A.4x- RGS High Wycombe 00:08:06:0
69 5 508 BMS-Herbert J16A.8+ Bedford Modern Sch 00:08:06:6
70 9 549 KCA-Kahol de Jong J15A.8+ Kings Sch Canterbury 00:08:07:1
73 10 543 HAM-Orme J15A.8+ Hampton Sch BC 00:08:09:4
74 6 536 NSC-Bacic JSchA.4- Norwich Sch 00:08:09:6
75 7 535 WLT-Pickering JSchA.4- Walton RC 00:08:09:7
76 19 481 EMA-Wilson J18A.4x- Emanuel Sch 00:08:09:9
79 2 562 HEN-BUTTERWORTH W.J18A.8+ Henley RC 00:08:10:8
80 1 574 HED-Little W.J18A.4x- Headington Sch 00:08:11:2
81 1 537 HAM-Woodall J16A.4- Hampton Sch BC 00:08:11:3
82 11 551 SES-Colson Lake J15A.8+ St Edwards Sch 00:08:11:8
83 6 509 KGS J16 J16A.8+ Kingston G Sch 00:08:12:1
84 7 516 WBS-Philipson J16A.4x- Windsor Boys Sch 00:08:12:2
85 2 540 HAM-Chan J16A.8+ 2nd VIII Hampton Sch BC 00:08:12:3
86 12 547 DUL-Shackleton J15A.8+ Dulwich Coll 00:08:12:8
88 20 494 MOC-Jones J18A.4x- Monmouth Comprehensive Sch 00:08:13:4
89 8 513 MBC-Miller J16A.4x- Molesey BC 00:08:13:6
90 6 498 RAD-House J18A.8+ 2nd VIII Radley College 00:08:14:1
93 15 460 CAN-Evans J18A.8+ Canford Sch 00:08:15:9
94 3 565 HED-Butler W.J18A.8+ Headington Sch 00:08:16:0
95 1 602 Guns J15A.8+ 2nd VIII Kings College Sch 00:08:16:4
96 13 550 RAD-Senior J15A.8+ Radley College 00:08:16:7
98 2 538 HAM-Bridge J16A.4- Hampton Sch BC 00:08:16:9
102 14 557 NSC-J15 I J15A.8+ Norwich Sch 00:08:18:4
104 2 575 MBC-A W.J18A.4x- Molesey BC 00:08:18:7
106 4 564 LEH W.J18A.8+ Lady E Holles 00:08:18:8
107 15 559 BDS-Celeritas2 J15A.8+ Bedford Sch 00:08:19:0
109 7 505 ETN- Tanaka J16A.8+ Eton Coll 00:08:19:8
110 2 663 TSS-Murphie J15A.4x+ Tideway Scullers Sch 00:08:19:8
111 21 493 LTU-Hussey J18A.4x- Latymer Upper Sch 00:08:20:0
112 2 600 RAD-Berry J15A.8+ 2nd VIII Radley College 00:08:20:0
113 22 485 TFN-Morris J18A.4x- Tiffin Sch 00:08:20:2
115 5 567 SBT-Brister-Runnacles W.J18A.8+ Surbiton H Sch 00:08:20:7
117 1 642 LTU-A W.J15A.8+ Latymer Upper Sch 00:08:20:8
118 9 520 NSC-Davis J16A.4x- Norwich Sch 00:08:21:0
120 3 604 NSC-J15 II J15A.8+ 2nd VIII Norwich Sch 00:08:21:7
121 16 546 BDS-Murray J15A.8+ Bedford Sch 00:08:21:7
123 2 644 HEN-Howard W.J15A.8+ Henley RC 00:08:22:3
126 3 654 ABV-Sayers J15A.4x+ A B Severn 00:08:23:3
127 4 653 WLT-McLennan J15A.4x+ Walton RC 00:08:23:4
128 5 660 WBS-Howe J15A.4x+ Windsor Boys Sch 00:08:23:4
131 3 586 HEN-Morgan W.J18A.4x- Henley RC 00:08:24:3
132 6 656 CCS-Nash J15A.4x+ Claires Court Sch 00:08:24:5
135 4 606 LOS Chapman J15A.8+ 2nd VIII Lon Oratory Sch 00:08:25:6
136 10 531 WBS-Tebbit J16A.4x- Windsor Boys Sch 00:08:26:9
137 4 579 LEH W.J18A.4x- Lady E Holles 00:08:27:7
138 5 577 LTU-Nelson W.J18A.4x- Latymer Upper Sch 00:08:27:8
139 3 643 LEH-Cross W.J15A.8+ Lady E Holles 00:08:28:1
141 17 554 BMS-Fox J15A.8+ Bedford Modern Sch 00:08:28:3
143 18 558 WGT-Moisley J15A.8+ Whitgift Sch BC 00:08:28:4
144 23 487 HWG-18A J18A.4x- RGS High Wycombe 00:08:28:5
147 6 572 PHS W.J18A.8+ Putney High Sch 00:08:29:1
148 7 571 GMS-Jobbagy W.J18A.8+ Gt Marlow Sch 00:08:29:2
149 1 631 HEN-O Donohue W.J16A.4x- Henley RC 00:08:29:4
151 6 580 LLA-Wright W.J18A.4x- Llandaff RC 00:08:29:8
152 5 603 WES-Odusanya J15A.8+ 2nd VIII Westminster Sch 00:08:29:8
155 19 561 KGS- Farrer J15A.8+ Kingston G Sch 00:08:30:6
156 8 659 HWG-A 15 J15A.4x+ RGS High Wycombe 00:08:31:3
158 24 483 SES-Peiker J18A.4x- St Edwards Sch 00:08:31:9
160 9 658 MHD-Overturf J15A.4x+ Maidenhead RC 00:08:32:0
161 11 527 BKS-IWANSKYJ J16A.4x- Becket RC 00:08:32:3
168 12 529 TFN-Lambert J16A.4x- Tiffin Sch 00:08:33:7
169 7 584 NOW-Wolstencroft W.J18A.4x- Northwich RC 00:08:33:9
170 8 566 SPG-Valt W.J18A.8+ St Pauls Girls Sch BC 00:08:34:0
171 8 581 SWP-Taylor W.J18A.4x- Sir William Perkins s Sch 00:08:34:2
175 6 599 SPS 1 J15A.8+ 2nd VIII St Pauls Sch BC 00:08:35:8
176 9 576 TRC-Munyard W.J18A.4x- Thames RC 00:08:36:1
177 3 639 LEH W.JSchA.4- Lady E Holles 00:08:36:4
178 10 657 MBC-A J15A.4x+ Molesey BC 00:08:36:6
181 7 605 HAM-Birchall J15A.8+ 2nd VIII Hampton Sch BC 00:08:37:7
182 13 532 WLT-Nienow J16A.4x- Walton RC 00:08:38:3
187 1 611 HED-Grainger W.J16A.8+ Headington Sch 00:08:39:1
188 3 690 TSS-Lack W.J15A.4x+ Tideway Scullers Sch 00:08:39:1
190 11 679 HEN-McLellan J15A.4x+ Henley RC 00:08:39:3
191 10 593 ASL-Bake W.J18A.4x- American Sch 00:08:39:7
192 12 664 WBS-Potts J15A.4x+ Windsor Boys Sch 00:08:40:0
195 2 614 Leh W.J16A.8+ Lady E Holles 00:08:40:5
198 2 619 HED-Van Der Merwe W.J16A.4x- Headington Sch 00:08:40:8
199 11 578 COX-Millard W.J18A.4x- City of Oxford 00:08:41:1
200 12 587 BMS-Monaghan W.J18A.4x- Bedford Modern Sch 00:08:41:2
203 9 568 EMA-Thomas W.J18A.8+ Emanuel Sch 00:08:41:8
205 3 623 LTU-Hdjw W.J16A.4x- Latymer Upper Sch 00:08:42:1
210 3 618 LEA-Millard W.J16A.8+ Lea RC 00:08:42:7
216 4 625 TSS-van Wachem W.J16A.4x- Tideway Scullers Sch 00:08:43:6
218 13 590 MBC-B W.J18A.4x- Molesey BC 00:08:43:8
221 4 645 EMA-Holmes W.J15A.8+ Emanuel Sch 00:08:45:4
222 4 613 SWP-Wax W.J16A.8+ Sir William Perkins s Sch 00:08:45:6
223 5 632 NOW-Shirley W.J16A.4x- Northwich RC 00:08:45:7
224 13 685 WBS-Islam J15A.4x+ Windsor Boys Sch 00:08:45:7
226 10 573 KCA-Abbott W.J18A.8+ Kings Sch Canterbury 00:08:46:0
227 14 534 MGN-Galloway J16A.4x- Magdalen Coll Sch 00:08:46:1
228 11 569 KGS- Girls W.J18A.8+ Kingston G Sch 00:08:46:3
235 14 589 SWP-Dugas W.J18A.4x- Sir William Perkins s Sch 00:08:47:2
241 6 691 HED-Milne W.J15A.4x+ Headington Sch 00:08:49:2
242 14 674 HWG-B 15 J15A.4x+ RGS High Wycombe 00:08:49:3
245 15 526 EMA-Silver J16A.4x- Emanuel Sch 00:08:49:8
247 8 511 ETN-Honnor J16A.8+ Eton Coll 00:08:50:1
256 5 650 GLT-Turner W.J15A.8+ Godolphin Sch 00:08:53:1
258 6 637 LTU-Seal W.J16A.4x- Latymer Upper Sch 00:08:53:5
260 15 672 WBS-Blake J15A.4x+ Windsor Boys Sch 00:08:53:6
264 5 612 HAB-Frankel W.J16A.8+ HMSG RC 00:08:56:1
265 8 608 BDS-Burton J15A.8+ 2nd VIII Bedford Sch 00:08:56:2
267 6 646 SBT-Mustafa W.J15A.8+ Surbiton H Sch 00:08:56:4
268 7 649 PHS-Newsholme W.J15A.8+ Putney High Sch 00:08:56:5
272 15 588 ABV-Surman W.J18A.4x- A B Severn 00:08:57:1
273 7 630 KSE-Garrett W.J16A.4x- Kings Sch Ely 00:08:57:2
275 8 622 COX-Turner-Frick W.J16A.4x- City of Oxford 00:08:57:3
278 16 667 CCS-Falck Award J15A.4x+ Claires Court Sch 00:08:57:6
282 20 555 CAN-J15 J15A.8+ Canford Sch 00:08:58:1
290 17 681 GMS-Bradley J15A.4x+ Gt Marlow Sch 00:08:59:8
294 25 486 TKC-Demargne J18A.4x- Team Keane 00:09:00:9
299 18 673 TKC-Sprackling J15A.4x+ Team Keane 00:09:01:5
301 9 627 WLT-Stenning W.J16A.4x- Walton RC 00:09:02:4
304 6 615 SPG-Boot W.J16A.8+ St Pauls Girls Sch BC 00:09:04:0
305 10 628 MOC-Richards W.J16A.4x- Monmouth Comprehensive Sch 00:09:04:0
308 9 610 HAM-Hettiaratchy J15A.8+ 2nd VIII Hampton Sch BC 00:09:04:8
311 11 626 TRC-Kelly W.J16A.4x- Thames RC 00:09:06:3
312 19 662 MGN-Buckland J15A.4x+ Magdalen Coll Sch 00:09:06:3
313 16 597 CAN-Doyle W.J18A.4x- Canford Sch 00:09:06:4
315 20 677 ROS-Clatworthy J15A.4x+ Ross RC 00:09:06:8
328 11 705 SHV-Lee W.J15A.4x+ Shiplake Vikings 00:09:09:9
330 21 678 MGN-Bradbery J15A.4x+ Magdalen Coll Sch 00:09:10:1
331 12 692 WLT-Catlin W.J15A.4x+ Walton RC 00:09:10:1
332 8 651 EMA-Polak W.J15A.8+ Emanuel Sch 00:09:10:2
334 14 702 ROS-Ryan W.J15A.4x+ Ross RC 00:09:10:9
335 12 621 MBC-Henderson W.J16A.4x- Molesey BC 00:09:11:4
339 13 629 BMS-Hale W.J16A.4x- Bedford Modern Sch 00:09:12:5
340 15 703 MOC-Harrison W.J15A.4x+ Monmouth Comprehensive Sch 00:09:12:7
341 17 585 LYT-Tombolis W.J18A.4x- LYR Tradesmen 00:09:13:5
344 16 689 LEH-Pillay W.J15A.4x+ Lady E Holles 00:09:13:8
345 22 671 TFN-Trovalusci J15A.4x+ Tiffin Sch 00:09:14:2
347 18 594 COX-Clempson W.J18A.4x- City of Oxford 00:09:15:2
348 8 640 WLT-Gray W.JSchA.4- Walton RC 00:09:15:4
358 23 655 WBS-Davis J15A.4x+ Windsor Boys Sch 00:09:17:6
359 9 648 KGS-1 W.J15A.8+ Kingston G Sch 00:09:18:2
360 14 633 SES-Prower W.J16A.4x- St Edwards Sch 00:09:18:4
362 2 641 MHD-Harding W.J16A.4- Maidenhead RC 00:09:18:9
366 24 661 MOC-Chilcott J15A.4x+ Monmouth Comprehensive Sch 00:09:19:2
368 17 269 NOW-Sperring-Toy W.J15A.4x+ Northwich RC 00:09:19:3
370 18 693 SWP-Jordan W.J15A.4x+ Sir William Perkins s Sch 00:09:19:6
371 19 697 ABV-Jones W.J15A.4x+ A B Severn 00:09:20:2
382 16 530 WGT-Pringle J16A.4x- Whitgift Sch BC 00:09:23:8
387 25 680 DUL-Endurance J15A.4x+ Dulwich Coll 00:09:24:8
389 26 675 MBC-B J15A.4x+ Molesey BC 00:09:26:0
391 10 607 KGS- Stroud mk 2 J15A.8+ 2nd VIII Kingston G Sch 00:09:26:8
395 20 696 BMS-Eales W.J15A.4x+ Bedford Modern Sch 00:09:27:4
398 19 591 MHD-Howell W.J18A.4x- Maidenhead RC 00:09:28:0
400 20 592 LYT-Thomson W.J18A.4x- LYR Tradesmen 00:09:28:3
402 21 700 TKC-Egelie W.J15A.4x+ Team Keane 00:09:29:3
411 22 694 MBC-Catling-Hall W.J15A.4x+ Molesey BC 00:09:32:2
413 23 701 SPG-Davidson W.J15A.4x+ St Pauls Girls Sch BC 00:09:33:9
414 10 647 CAN-Milner W.J15A.8+ Canford Sch 00:09:33:9
425 24 709 SWP-Martin W.J15A.4x+ Sir William Perkins s Sch 00:09:39:3
428 28 665 TKC-Esin J15A.4x+ Team Keane 00:09:40:3
429 21 598 BAE-Arney W.J18A.4x- Barn Elms 00:09:40:5
433 15 638 CAN-Hewett W.J16A.4x- Canford Sch 00:09:41:5
436 22 595 KCS-Nicol W.J18A.4x- Kings College Sch 00:09:43:8
438 26 713 BMS-Andrew W.J15A.4x+ Bedford Modern Sch 00:09:44:0
444 27 710 GMS-Smith W.J15A.4x+ Gt Marlow Sch 00:09:50:4
448 29 699 NSC-WJ154x+ W.J15A.4x+ Norwich Sch 00:09:52:8
449 16 635 TKC-Keene W.J16A.4x- Team Keane 00:09:53:6
453 30 695 WHS-Bassadone W.J15A.4x+ Wimbledon High Sch 00:09:55:3
454 31 706 HED-Shah W.J15A.4x+ Headington Sch 00:09:58:2
456 30 687 KCA-Dominic J15A.4x+ Kings Sch Canterbury 00:10:03:3
464 32 707 KGS-1 W.J15A.4x+ Kingston G Sch 00:10:14:6
468 33 698 KCA-Josie W.J15A.4x+ Kings Sch Canterbury 00:10:26:7
470 34 714 WHS-Ellis W.J15A.4x+ Wimbledon High Sch 00:10:31:1
471 35 708 WHS-Crawford Collins W.J15A.4x+ Wimbledon High Sch 00:10:33:8
472 36 712 TKC-Nichols W.J15A.4x+ Team Keane 00:10:39:9
Scratched 668 ASL-Gorrivan J15A.4x+ American Sch 00:00:00:0
Scratched 669 BRY- J15 4x+ T.O. 1 J15A.4x+ Bryanston Sch 00:00:00:0
Scratched 686 BRY- J15 4x+ T.O. 2 J15A.4x+ Bryanston Sch 00:00:00:0
Scratched 688 BRY-J16 4+ T.O. J16A.4+ Bryanston Sch 00:00:00:0
Scratched 670 CAN-Herrington J15A.4x+ Canford Sch 00:00:00:0
Scratched 704 CAN-Marley W.J15A.4x+ Canford Sch 00:00:00:0
Scratched 491 CHH- J16 4x- J18A.4x- Charterhouse Sch BC 00:00:00:0
Scratched 676 CHH-Campbell-Wilson J15A.4x+ Charterhouse Sch BC 00:00:00:0
Scratched 517 CCS-Broadhead J16A.4x- Claires Court Sch 00:00:00:0
Scratched 528 CCS-Hall J16A.4x- Claires Court Sch 00:00:00:0
Scratched 682 CCS-Hall J15A.4x+ Claires Court Sch 00:00:00:0
Scratched 507 DUL-Howard J16A.8+ Dulwich Coll 00:00:00:0
Scratched 539 DUL-Tatman J16A.8+ 2nd VIII Dulwich Coll 00:00:00:0
Scratched 711 GLB-Steven W.J15A.4x+ Globe 00:00:00:0
Scratched 495 HAM - Warrington J18A.4x- Hampton Sch BC 00:00:00:0
Scratched 596 LTU-Marshall W.J18A.4x- Latymer Upper Sch 00:00:00:0
Scratched 601 LTU-J15B J15A.8+ 2nd VIII Latymer Upper Sch 00:00:00:0
Scratched 519 LOS Rolls J16A.4x- Lon Oratory Sch 00:00:00:0
Scratched 652 LYT-Newhouse W.J15A.8+ LYR Tradesmen 00:00:00:0
Scratched 471 MAR-Long J18A.4x- Marlow RC 00:00:00:0
Scratched 518 MAR-Marshall J16A.4x- Marlow RC 00:00:00:0
Scratched 563 MAR-Strudwick W.J18A.8+ Marlow RC 00:00:00:0
Scratched 620 MAR-Brooks W.J16A.4x- Marlow RC 00:00:00:0
Scratched 617 PHS W.J16A.8+ Putney High Sch 00:00:00:0
Scratched 523 RAD-Rhodes J16A.4x- Radley College 00:00:00:0
Scratched 666 RAD-Wakeley J15A.4x+ Radley College 00:00:00:0
Scratched 624 SHV-Hatlee W.J16A.4x- Shiplake Vikings 00:00:00:0
Scratched 454 SES-Dei Rossi J18A.8+ St Edwards Sch 00:00:00:0
Scratched 609 SPS 2 J15A.8+ 2nd VIII St Pauls Sch BC 00:00:00:0
Scratched 478 STA-Molloy J18A.4x- Star Club 00:00:00:0
Scratched 521 STA-White J16A.4x- Star Club 00:00:00:0
Scratched 582 STA-Upex W.J18A.4x- Star Club 00:00:00:0
Scratched 634 SBT-Richards W.J16A.4x- Surbiton H Sch 00:00:00:0
Scratched 683 TKC-Hulme J15A.4x+ Team Keane 00:00:00:0
Scratched 684 TFN-Herath J15A.4x+ Tiffin Sch 00:00:00:0
Scratched 583 WBK-Suter W.J18A.4x- Walbrook 00:00:00:0
Scratched 503 17ws16 8 J16A.8+ Westminster Sch 00:00:00:0
Scratched 616 WEY-Brosnan W.J16A.8+ Weybridge RC 00:00:00:0
Scratched 533 WRR-Hall J16A.4x- Worcester RC 00:00:00:0
Scratched 636 WRR-Silvester W.J16A.4x- Worcester RC 00:00:00:0